createdAt,value
2023-04-18T00:00:44.204Z,12.27
2023-04-18T00:03:10.838Z,9.27
2023-04-18T00:11:16.288Z,13.82
2023-04-18T00:13:42.868Z,11.35
2023-04-18T00:16:09.540Z,10.27
2023-04-18T00:18:37.115Z,8.70
2023-04-18T00:26:47.167Z,9.30
2023-04-18T00:35:11.927Z,10.38
2023-04-18T00:37:39.070Z,10.50
2023-04-18T00:46:06.752Z,10.50
2023-04-18T00:49:36.942Z,9.77
2023-04-18T00:52:03.933Z,15.10
2023-04-18T01:06:24.518Z,9.88
2023-04-18T01:08:51.225Z,10.30
2023-04-18T01:11:17.731Z,10.25
2023-04-18T01:14:06.450Z,12.25
2023-04-18T01:16:37.128Z,11.68
2023-04-18T01:19:04.823Z,13.73
2023-04-18T01:30:34.409Z,12.93
2023-04-18T01:33:02.409Z,12.88
2023-04-18T01:35:29.768Z,16.08
2023-04-18T01:37:57.243Z,11.45
2023-04-18T01:43:57.044Z,12.57
2023-04-18T01:57:44.251Z,13.27
2023-04-18T02:13:43.272Z,13.77
2023-04-18T02:33:38.627Z,13.48
2023-04-18T02:51:16.568Z,12.85
2023-04-18T02:53:54.960Z,16.42
2023-04-18T02:56:22.814Z,16.42
2023-04-18T03:02:16.166Z,18.13
2023-04-18T04:50:15.712Z,15.55
2023-04-18T05:02:37.062Z,15.32
2023-04-18T05:05:03.838Z,14.43
2023-04-18T05:07:30.824Z,16.73
2023-04-18T05:09:57.236Z,12.90
2023-04-18T05:12:23.699Z,15.52
2023-04-18T05:14:50.270Z,14.25
2023-04-18T05:17:16.643Z,14.65
2023-04-18T05:19:44.130Z,16.25
2023-04-18T05:22:10.828Z,13.40
2023-04-18T05:24:37.258Z,15.00
2023-04-18T05:27:03.976Z,15.68
2023-04-18T05:29:30.495Z,17.35
2023-04-18T05:31:56.903Z,15.48
2023-04-18T05:34:23.311Z,13.20
2023-04-18T05:36:49.853Z,13.50
2023-04-18T05:39:17.006Z,16.50
2023-04-18T05:41:43.610Z,12.27
2023-04-18T05:44:10.203Z,13.65
2023-04-18T05:46:36.649Z,14.20
2023-04-18T05:49:03.664Z,13.82
2023-04-18T05:51:31.180Z,14.25
2023-04-18T05:53:57.660Z,13.65
2023-04-18T05:56:24.104Z,13.85
2023-04-18T05:58:51.292Z,14.23
2023-04-18T06:01:21.292Z,13.95
2023-04-18T06:03:47.958Z,14.57
2023-04-18T06:06:14.632Z,11.90
2023-04-18T06:08:41.188Z,13.07
2023-04-18T06:11:08.880Z,13.98
2023-04-18T06:13:37.052Z,12.20
2023-04-18T06:16:04.221Z,16.67
2023-04-18T06:18:31.285Z,14.77
2023-04-18T06:20:57.757Z,12.98
2023-04-18T06:23:24.189Z,13.98
2023-04-18T06:25:50.686Z,14.43
2023-04-18T06:28:17.101Z,12.60
2023-04-18T06:30:43.491Z,14.75
2023-04-18T06:33:11.005Z,12.95
2023-04-18T06:35:37.660Z,14.52
2023-04-18T06:38:04.258Z,12.60
2023-04-18T06:40:30.805Z,12.52
2023-04-18T06:42:57.282Z,14.18
2023-04-18T06:45:23.673Z,17.52
2023-04-18T06:47:51.256Z,12.88
2023-04-18T06:50:17.739Z,13.05
2023-04-18T06:52:45.439Z,11.95
2023-04-18T06:55:12.766Z,15.40
2023-04-18T06:57:42.627Z,14.45
2023-04-18T07:00:10.363Z,14.93
2023-04-18T07:02:38.132Z,13.05
2023-04-18T07:05:05.513Z,14.35
2023-04-18T07:07:32.974Z,13.63
2023-04-18T07:09:59.705Z,13.60
2023-04-18T07:12:26.200Z,15.18
2023-04-18T07:14:53.299Z,14.52
2023-04-18T07:17:19.834Z,13.85
2023-04-18T07:19:46.266Z,13.07
2023-04-18T07:22:12.695Z,13.55
2023-04-18T07:24:39.876Z,14.85
2023-04-18T07:27:06.878Z,12.50
2023-04-18T07:29:33.560Z,12.45
2023-04-18T07:32:00.093Z,14.85
2023-04-18T07:34:29.702Z,15.60
2023-04-18T07:36:59.516Z,15.30
2023-04-18T07:39:25.917Z,13.57
2023-04-18T07:41:52.416Z,11.65
2023-04-18T07:44:21.359Z,15.07
2023-04-18T07:46:47.882Z,13.40
2023-04-18T07:49:15.030Z,14.43
2023-04-18T07:51:41.703Z,12.73
2023-04-18T07:54:08.208Z,15.80
2023-04-18T07:56:34.673Z,13.23
2023-04-18T07:59:01.620Z,11.75
2023-04-18T08:01:28.054Z,13.68
2023-04-18T08:03:56.799Z,15.05
2023-04-18T08:06:23.304Z,15.15
2023-04-18T08:08:49.769Z,14.25
2023-04-18T08:11:16.410Z,13.25
2023-04-18T08:13:43.918Z,13.80
2023-04-18T08:16:10.650Z,14.07
2023-04-18T08:18:37.058Z,12.82
2023-04-18T08:21:03.637Z,13.68
2023-04-18T08:23:30.035Z,13.88
2023-04-18T08:25:56.480Z,13.75
2023-04-18T08:28:22.912Z,14.73
2023-04-18T08:30:50.244Z,15.38
2023-04-18T08:33:16.709Z,15.05
2023-04-18T08:35:43.365Z,15.77
2023-04-18T08:38:09.917Z,14.98
2023-04-18T08:40:37.238Z,13.93
2023-04-18T08:43:09.099Z,15.15
2023-04-18T08:45:36.783Z,14.57
2023-04-18T08:48:03.918Z,14.27
2023-04-18T08:50:30.798Z,13.30
2023-04-18T08:52:59.282Z,15.07
2023-04-18T08:55:25.806Z,14.80
2023-04-18T08:57:54.590Z,14.60
2023-04-18T09:00:22.433Z,14.30
2023-04-18T09:02:49.400Z,14.88
2023-04-18T09:05:21.079Z,13.98
2023-04-18T09:07:48.681Z,16.15
2023-04-18T09:10:32.810Z,14.48
2023-04-18T09:13:02.956Z,15.70
2023-04-18T09:15:30.300Z,17.88
2023-04-18T09:17:59.273Z,13.43
2023-04-18T09:20:41.041Z,15.57
2023-04-18T09:23:11.003Z,12.85
2023-04-18T09:25:45.300Z,13.70
2023-04-18T09:28:28.837Z,13.82
2023-04-18T09:31:09.124Z,13.25
2023-04-18T09:33:36.943Z,14.02
2023-04-18T09:36:20.709Z,12.18
2023-04-18T09:38:48.403Z,11.52
2023-04-18T09:41:21.197Z,13.40
2023-04-18T09:43:48.332Z,11.05
2023-04-18T09:46:15.268Z,11.68
2023-04-18T09:48:41.893Z,12.00
2023-04-18T09:51:11.516Z,13.27
2023-04-18T09:53:44.432Z,11.30
2023-04-18T09:56:25.694Z,11.10
2023-04-18T09:58:56.445Z,11.52
2023-04-18T10:01:27.668Z,29.48
2023-04-18T10:03:55.659Z,17.02
2023-04-18T10:06:22.323Z,11.85
2023-04-18T10:08:50.615Z,13.30
2023-04-18T10:11:18.573Z,9.48
2023-04-18T10:13:47.944Z,10.00
2023-04-18T10:16:14.587Z,10.60
2023-04-18T10:18:42.545Z,10.63
2023-04-18T10:21:09.296Z,9.93
2023-04-18T10:23:39.665Z,10.38
2023-04-18T10:26:12.192Z,10.30
2023-04-18T10:28:54.271Z,10.32
2023-04-18T10:31:22.568Z,9.40
2023-04-18T10:34:03.332Z,10.23
2023-04-18T10:36:32.364Z,9.57
2023-04-18T10:39:20.868Z,9.85
2023-04-18T10:41:51.441Z,24.58
2023-04-18T10:44:24.715Z,11.10
2023-04-18T10:46:51.201Z,8.18
2023-04-18T10:49:24.473Z,7.97
2023-04-18T10:51:58.354Z,8.73
2023-04-18T10:54:55.538Z,8.65
2023-04-18T10:57:22.912Z,7.10
2023-04-18T10:59:52.496Z,7.38
2023-04-18T11:02:26.109Z,7.68
2023-04-18T11:04:55.386Z,7.28
2023-04-18T11:07:34.616Z,6.45
2023-04-18T11:12:32.890Z,7.53
2023-04-18T11:15:01.535Z,7.85
2023-04-18T11:17:32.201Z,6.43
2023-04-18T11:20:13.625Z,6.78
2023-04-18T11:22:50.785Z,6.70
2023-04-18T11:25:20.143Z,7.13
2023-04-18T11:27:47.539Z,6.60
2023-04-18T11:30:14.717Z,6.32
2023-04-18T11:32:41.309Z,7.90
2023-04-18T11:35:12.242Z,7.57
2023-04-18T11:37:39.196Z,13.63
2023-04-18T11:40:08.720Z,5.80
2023-04-18T11:42:37.238Z,5.57
2023-04-18T11:45:04.082Z,6.40
2023-04-18T11:47:33.749Z,7.20
2023-04-18T11:50:04.278Z,6.00
2023-04-18T11:52:31.596Z,6.60
2023-04-18T11:55:21.274Z,4.95
2023-04-18T11:57:57.553Z,6.15
2023-04-18T12:00:35.472Z,5.15
2023-04-18T12:03:07.729Z,5.90
2023-04-18T12:05:37.160Z,5.32
2023-04-18T12:08:13.912Z,4.47
2023-04-18T12:10:47.714Z,4.53
2023-04-18T12:13:14.676Z,5.93
2023-04-18T12:15:43.652Z,4.00
2023-04-18T12:18:12.081Z,4.13
2023-04-18T12:20:46.040Z,4.20
2023-04-18T12:23:35.764Z,4.20
2023-04-18T12:26:03.933Z,4.43
2023-04-18T12:28:31.242Z,4.03
2023-04-18T12:30:57.942Z,4.15
2023-04-18T12:33:24.804Z,6.75
2023-04-18T12:35:52.587Z,3.85
2023-04-18T12:38:22.677Z,4.38
2023-04-18T12:40:49.986Z,10.45
2023-04-18T12:43:16.801Z,7.18
2023-04-18T12:45:43.380Z,5.93
2023-04-18T12:48:10.278Z,4.40
2023-04-18T12:50:36.807Z,4.78
2023-04-18T12:53:03.538Z,3.78
2023-04-18T12:55:30.111Z,4.95
2023-04-18T12:57:58.070Z,4.57
2023-04-18T13:00:27.517Z,4.75
2023-04-18T13:02:54.013Z,5.22
2023-04-18T13:05:22.942Z,3.72
2023-04-18T13:07:49.694Z,4.38
2023-04-18T13:10:21.797Z,4.18
2023-04-18T13:12:49.282Z,4.28
2023-04-18T13:15:16.121Z,7.47
2023-04-18T13:17:43.289Z,4.00
2023-04-18T13:20:12.238Z,5.82
2023-04-18T13:22:40.119Z,4.13
2023-04-18T13:25:08.140Z,4.32
2023-04-18T13:27:34.595Z,5.30
2023-04-18T13:30:01.040Z,4.43
2023-04-18T13:32:27.501Z,5.50
2023-04-18T13:34:55.969Z,4.43
2023-04-18T13:37:22.742Z,4.95
2023-04-18T13:39:49.194Z,4.30
2023-04-18T13:42:16.306Z,4.82
2023-04-18T13:44:42.840Z,4.72
2023-04-18T13:47:09.249Z,4.35
2023-04-18T13:49:36.390Z,6.32
2023-04-18T13:52:03.541Z,4.03
2023-04-18T13:54:31.844Z,5.10
2023-04-18T13:57:02.992Z,5.40
2023-04-18T13:59:31.315Z,5.40
2023-04-18T14:01:58.021Z,4.93
2023-04-18T14:04:24.717Z,4.00
2023-04-18T14:06:51.372Z,5.25
2023-04-18T14:09:18.004Z,5.20
2023-04-18T14:11:45.201Z,4.95
2023-04-18T14:14:11.708Z,5.28
2023-04-18T14:16:38.162Z,6.18
2023-04-18T14:19:04.647Z,5.93
2023-04-18T14:21:31.179Z,4.78
2023-04-18T14:23:57.602Z,6.05
2023-04-18T14:26:24.091Z,4.78
2023-04-18T14:28:50.715Z,6.32
2023-04-18T14:31:17.181Z,4.32
2023-04-18T14:33:43.682Z,5.88
2023-04-18T14:36:10.746Z,6.82
2023-04-18T14:38:37.164Z,7.18
2023-04-18T14:41:04.487Z,4.78
2023-04-18T14:43:30.937Z,4.82
2023-04-18T14:45:59.008Z,5.32
2023-04-18T14:48:26.282Z,4.25
2023-04-18T14:50:57.023Z,9.75
2023-04-18T14:53:24.062Z,6.47
2023-04-18T14:55:50.949Z,4.85
2023-04-18T14:58:17.498Z,6.38
2023-04-18T15:00:44.020Z,5.30
2023-04-18T15:03:11.449Z,5.82
2023-04-18T15:05:44.894Z,4.93
2023-04-18T15:08:11.520Z,6.20
2023-04-18T15:10:39.945Z,5.38
2023-04-18T15:13:06.452Z,4.85
2023-04-18T15:15:35.475Z,8.50
2023-04-18T15:18:02.810Z,5.63
2023-04-18T15:20:29.613Z,6.38
2023-04-18T15:22:56.748Z,6.38
2023-04-18T15:25:23.260Z,5.95
2023-04-18T15:27:49.831Z,5.10
2023-04-18T15:30:16.330Z,5.10
2023-04-18T15:32:42.844Z,5.60
2023-04-18T15:35:10.350Z,4.82
2023-04-18T15:37:37.244Z,5.65
2023-04-18T15:40:09.394Z,5.18
2023-04-18T15:42:36.136Z,5.85
2023-04-18T15:45:04.608Z,4.88
2023-04-18T15:47:33.840Z,5.13
2023-04-18T15:52:27.017Z,4.25
2023-04-18T15:54:53.809Z,4.85
2023-04-18T15:57:20.971Z,4.82
2023-04-18T15:59:47.448Z,4.82
2023-04-18T16:02:14.087Z,5.20
2023-04-18T16:04:40.849Z,6.32
2023-04-18T16:07:08.208Z,6.68
2023-04-18T16:09:34.650Z,6.07
2023-04-18T16:12:03.153Z,4.75
2023-04-18T16:14:31.084Z,5.97
2023-04-18T16:16:59.118Z,4.65
2023-04-18T16:19:26.326Z,4.85
2023-04-18T16:21:52.794Z,4.57
2023-04-18T16:24:19.262Z,5.95
2023-04-18T16:26:45.744Z,6.38
2023-04-18T16:29:12.212Z,4.57
2023-04-18T16:31:38.789Z,4.55
2023-04-18T16:34:05.294Z,4.75
2023-04-18T16:36:34.161Z,6.55
2023-04-18T16:39:00.665Z,4.25
2023-04-18T16:41:27.172Z,4.13
2023-04-18T16:43:53.942Z,7.55
2023-04-18T16:46:20.562Z,4.55
2023-04-18T16:48:47.098Z,5.10
2023-04-18T16:51:13.574Z,4.53
2023-04-18T16:53:39.984Z,4.57
2023-04-18T16:56:07.875Z,4.07
2023-04-18T16:58:34.441Z,6.53
2023-04-18T17:01:03.937Z,3.85
2023-04-18T17:03:30.488Z,3.78
2023-04-18T17:05:57.141Z,4.85
2023-04-18T17:08:25.642Z,14.05
2023-04-18T17:10:52.666Z,5.25
2023-04-18T17:13:19.173Z,5.32
2023-04-18T17:15:45.978Z,4.40
2023-04-18T17:18:12.492Z,3.90
2023-04-18T17:20:38.957Z,3.83
2023-04-18T17:23:05.358Z,4.53
2023-04-18T17:25:31.811Z,4.57
2023-04-18T17:27:58.610Z,4.00
2023-04-18T17:30:25.088Z,4.10
2023-04-18T17:32:51.581Z,4.30
2023-04-18T17:35:18.128Z,5.22
2023-04-18T17:37:44.569Z,4.43
2023-04-18T17:40:11.857Z,5.60
2023-04-18T17:42:38.619Z,5.75
2023-04-18T17:45:06.614Z,6.85
2023-04-18T17:47:33.654Z,5.15
2023-04-18T17:50:00.705Z,4.90
2023-04-18T17:52:30.469Z,5.38
2023-04-18T17:54:56.995Z,4.80
2023-04-18T17:57:25.852Z,5.45
2023-04-18T17:59:52.519Z,6.43
2023-04-18T18:02:19.518Z,5.43
2023-04-18T18:04:46.898Z,6.47
2023-04-18T18:07:14.092Z,6.03
2023-04-18T18:09:41.893Z,5.80
2023-04-18T18:12:09.862Z,6.78
2023-04-18T18:14:36.378Z,6.50
2023-04-18T18:17:03.088Z,6.65
2023-04-18T18:19:29.576Z,7.32
2023-04-18T18:21:56.231Z,6.13
2023-04-18T18:24:25.030Z,6.55
2023-04-18T18:26:51.859Z,6.40
2023-04-18T18:29:19.210Z,5.47
2023-04-18T18:31:45.773Z,5.82
2023-04-18T18:34:12.422Z,5.93
2023-04-18T18:36:39.024Z,5.85
2023-04-18T18:39:05.537Z,5.82
2023-04-18T18:41:31.921Z,6.03
2023-04-18T18:43:58.496Z,6.20
2023-04-18T18:46:25.297Z,7.13
2023-04-18T18:48:52.137Z,7.07
2023-04-18T18:51:19.087Z,6.05
2023-04-18T18:53:46.546Z,7.63
2023-04-18T20:52:10.127Z,11.20
2023-04-18T20:54:39.011Z,8.35
2023-04-18T20:57:07.594Z,9.23
2023-04-18T22:16:21.887Z,8.95
2023-04-18T22:18:51.684Z,8.77
2023-04-18T22:21:19.873Z,9.73
2023-04-18T22:30:04.227Z,10.30
2023-04-18T22:32:31.236Z,9.15
